TimeEDT,TemperatureF,Dew PointF,Humidity,Sea Level PressureIn,VisibilityMPH,Wind Direction,Wind SpeedMPH,Gust SpeedMPH,PrecipitationIn,Events,Conditions,WindDirDegrees,DateUTC
12:53 AM,54.0,52.0,93,30.07,9.0,SW,3.5,-,N/A,,Overcast,220,2012-10-10 04:53:00
1:53 AM,54.0,52.0,93,30.06,10.0,Calm,Calm,-,N/A,,Overcast,0,2012-10-10 05:53:00
2:53 AM,54.0,51.1,90,30.05,10.0,Calm,Calm,-,N/A,,Overcast,0,2012-10-10 06:53:00
3:53 AM,54.0,51.1,90,30.03,10.0,Calm,Calm,-,N/A,,Overcast,0,2012-10-10 07:53:00
4:53 AM,55.0,51.1,86,30.03,10.0,West,5.8,-,N/A,,Overcast,260,2012-10-10 08:53:00
5:53 AM,52.0,50.0,93,30.03,10.0,Calm,Calm,-,N/A,,Overcast,0,2012-10-10 09:53:00
6:53 AM,48.9,46.0,90,30.04,10.0,Calm,Calm,-,N/A,,Partly Cloudy,0,2012-10-10 10:53:00
7:53 AM,48.0,46.0,93,30.06,10.0,SW,3.5,-,N/A,,Clear,220,2012-10-10 11:53:00
8:53 AM,54.0,48.9,83,30.06,10.0,WSW,5.8,-,N/A,,Clear,250,2012-10-10 12:53:00
9:53 AM,59.0,48.9,69,30.06,10.0,West,8.1,-,N/A,,Clear,260,2012-10-10 13:53:00
10:53 AM,63.0,48.9,60,30.04,10.0,SW,6.9,-,N/A,,Clear,230,2012-10-10 14:53:00
11:53 AM,64.9,48.0,54,30.03,10.0,WNW,6.9,-,N/A,,Clear,300,2012-10-10 15:53:00
12:53 PM,66.9,50.0,54,30.01,10.0,WNW,6.9,-,N/A,,Clear,290,2012-10-10 16:53:00
1:53 PM,71.1,50.0,47,29.97,10.0,West,10.4,16.1,N/A,,Partly Cloudy,270,2012-10-10 17:53:00
2:53 PM,70.0,48.9,47,29.96,10.0,West,8.1,-,N/A,,Scattered Clouds,280,2012-10-10 18:53:00
3:53 PM,72.0,48.0,43,29.96,10.0,WNW,11.5,18.4,N/A,,Scattered Clouds,290,2012-10-10 19:53:00
4:53 PM,70.0,48.0,46,29.97,10.0,West,13.8,24.2,N/A,,Clear,280,2012-10-10 20:53:00
5:53 PM,66.9,48.0,51,29.99,10.0,West,10.4,18.4,N/A,,Clear,270,2012-10-10 21:53:00
6:53 PM,63.0,48.9,60,30.00,10.0,SW,3.5,-,N/A,,Overcast,220,2012-10-10 22:53:00
7:53 PM,63.0,48.9,60,30.02,10.0,WSW,6.9,-,N/A,,Mostly Cloudy,250,2012-10-10 23:53:00
8:53 PM,63.0,48.0,58,30.04,10.0,WNW,6.9,-,N/A,,Mostly Cloudy,300,2012-10-11 00:53:00
9:53 PM,61.0,44.1,54,30.07,10.0,WNW,9.2,18.4,N/A,,Clear,300,2012-10-11 01:53:00
10:53 PM,57.9,43.0,58,30.10,10.0,WNW,8.1,-,N/A,,Clear,290,2012-10-11 02:53:00
11:53 PM,55.9,42.1,60,30.12,10.0,WNW,5.8,-,N/A,,Clear,300,2012-10-11 03:53:00